Aviation Digital Data Service (ADDS)

Output produced by TAFs form (0650 UTC 28 August 2015)
found at http://aviationweather.gov/adds/tafs/
 
KELP 280523Z 2806/2906 VRB05KT P6SM SCT080 BKN100 BKN250 
     FM280800 VRB05KT P6SM SCT100 BKN250 
     FM282000 33005KT P6SM VCTS SCT070CB BKN150 
     FM290400 15007KT P6SM SCT100 BKN250